sensor_id;sensor_type;location;lat;lon;timestamp;pressure;altitude;pressure_sealevel;temperature;humidity
2294;BME280;1155;42.644;23.264;2023-05-19T00:00:58;60318.72;;;-140.67;100.00
2294;BME280;1155;42.644;23.264;2023-05-19T00:03:25;60326.91;;;-140.67;100.00
2294;BME280;1155;42.644;23.264;2023-05-19T00:05:53;60316.66;;;-140.67;100.00
2294;BME280;1155;42.644;23.264;2023-05-19T00:08:21;60351.47;;;-140.67;100.00
2294;BME280;1155;42.644;23.264;2023-05-19T00:10:49;60322.81;;;-140.67;100.00
2294;BME280;1155;42.644;23.264;2023-05-19T00:13:16;60339.19;;;-140.67;100.00
2294;BME280;1155;42.644;23.264;2023-05-19T00:15:45;60347.38;;;-140.67;100.00
2294;BME280;1155;42.644;23.264;2023-05-19T00:18:13;60318.72;;;-140.67;100.00
2294;BME280;1155;42.644;23.264;2023-05-19T00:20:41;60345.34;;;-140.67;100.00
2294;BME280;1155;42.644;23.264;2023-05-19T00:23:09;60314.63;;;-140.67;100.00
2294;BME280;1155;42.644;23.264;2023-05-19T00:25:36;60318.72;;;-140.67;100.00
2294;BME280;1155;42.644;23.264;2023-05-19T00:28:03;60318.72;;;-140.67;100.00
2294;BME280;1155;42.644;23.264;2023-05-19T00:30:30;60341.25;;;-140.67;100.00
2294;BME280;1155;42.644;23.264;2023-05-19T00:32:58;60345.34;;;-140.67;100.00
2294;BME280;1155;42.644;23.264;2023-05-19T00:35:25;60337.16;;;-140.67;100.00
2294;BME280;1155;42.644;23.264;2023-05-19T00:37:52;60331.00;;;-140.67;100.00
2294;BME280;1155;42.644;23.264;2023-05-19T00:40:19;60353.53;;;-140.67;100.00
2294;BME280;1155;42.644;23.264;2023-05-19T00:42:46;60343.28;;;-140.67;100.00
2294;BME280;1155;42.644;23.264;2023-05-19T00:45:13;60322.81;;;-140.67;100.00
2294;BME280;1155;42.644;23.264;2023-05-19T00:47:40;60324.84;;;-140.67;100.00
2294;BME280;1155;42.644;23.264;2023-05-19T00:50:09;60326.91;;;-140.67;100.00
2294;BME280;1155;42.644;23.264;2023-05-19T00:52:36;60322.81;;;-140.67;100.00
2294;BME280;1155;42.644;23.264;2023-05-19T00:55:03;60318.72;;;-140.67;100.00
2294;BME280;1155;42.644;23.264;2023-05-19T00:57:30;60339.19;;;-140.67;100.00
2294;BME280;1155;42.644;23.264;2023-05-19T00:59:57;60331.00;;;-140.67;100.00
2294;BME280;1155;42.644;23.264;2023-05-19T01:02:24;60333.06;;;-140.67;100.00
2294;BME280;1155;42.644;23.264;2023-05-19T01:04:55;60343.28;;;-140.67;100.00
2294;BME280;1155;42.644;23.264;2023-05-19T01:07:24;60318.72;;;-140.67;100.00
2294;BME280;1155;42.644;23.264;2023-05-19T01:09:51;60318.72;;;-140.67;100.00
2294;BME280;1155;42.644;23.264;2023-05-19T01:12:18;60322.81;;;-140.67;100.00
2294;BME280;1155;42.644;23.264;2023-05-19T01:14:45;60326.91;;;-140.67;100.00
2294;BME280;1155;42.644;23.264;2023-05-19T01:17:19;60310.53;;;-140.67;100.00
2294;BME280;1155;42.644;23.264;2023-05-19T01:19:56;60322.81;;;-140.67;100.00
2294;BME280;1155;42.644;23.264;2023-05-19T01:26:03;60333.06;;;-140.67;100.00
2294;BME280;1155;42.644;23.264;2023-05-19T01:31:41;60326.91;;;-140.67;100.00
2294;BME280;1155;42.644;23.264;2023-05-19T01:34:11;60326.91;;;-140.67;100.00
2294;BME280;1155;42.644;23.264;2023-05-19T01:36:40;60333.06;;;-140.67;100.00
2294;BME280;1155;42.644;23.264;2023-05-19T01:39:09;60318.72;;;-140.67;100.00
2294;BME280;1155;42.644;23.264;2023-05-19T01:41:37;60333.06;;;-140.67;100.00
2294;BME280;1155;42.644;23.264;2023-05-19T01:44:07;60324.84;;;-140.67;100.00
2294;BME280;1155;42.644;23.264;2023-05-19T01:46:34;60320.75;;;-140.67;100.00
2294;BME280;1155;42.644;23.264;2023-05-19T01:49:03;60312.56;;;-140.67;100.00
2294;BME280;1155;42.644;23.264;2023-05-19T01:51:30;60355.56;;;-140.67;100.00
2294;BME280;1155;42.644;23.264;2023-05-19T01:53:57;60318.72;;;-140.67;100.00
2294;BME280;1155;42.644;23.264;2023-05-19T01:56:33;60355.56;;;-140.67;100.00
2294;BME280;1155;42.644;23.264;2023-05-19T01:59:15;60339.19;;;-140.67;100.00
2294;BME280;1155;42.644;23.264;2023-05-19T02:01:52;60324.84;;;-140.67;100.00
2294;BME280;1155;42.644;23.264;2023-05-19T02:04:26;60318.72;;;-140.67;100.00
2294;BME280;1155;42.644;23.264;2023-05-19T02:07:00;60341.25;;;-140.67;100.00
2294;BME280;1155;42.644;23.264;2023-05-19T02:09:36;60349.44;;;-140.67;100.00
2294;BME280;1155;42.644;23.264;2023-05-19T02:12:09;60337.16;;;-140.67;100.00
2294;BME280;1155;42.644;23.264;2023-05-19T02:14:39;60337.16;;;-140.67;100.00
2294;BME280;1155;42.644;23.264;2023-05-19T02:17:07;60339.19;;;-140.67;100.00
2294;BME280;1155;42.644;23.264;2023-05-19T02:19:38;60333.06;;;-140.67;100.00
2294;BME280;1155;42.644;23.264;2023-05-19T02:22:05;60343.28;;;-140.67;100.00
2294;BME280;1155;42.644;23.264;2023-05-19T02:24:32;60351.47;;;-140.67;100.00
2294;BME280;1155;42.644;23.264;2023-05-19T02:26:59;60294.13;;;-140.67;100.00
2294;BME280;1155;42.644;23.264;2023-05-19T02:29:26;60333.06;;;-140.67;100.00
2294;BME280;1155;42.644;23.264;2023-05-19T02:31:52;60361.72;;;-140.67;100.00
2294;BME280;1155;42.644;23.264;2023-05-19T02:34:19;60355.56;;;-140.67;100.00
2294;BME280;1155;42.644;23.264;2023-05-19T02:36:47;60341.25;;;-140.67;100.00
2294;BME280;1155;42.644;23.264;2023-05-19T02:39:15;60331.00;;;-140.67;100.00
2294;BME280;1155;42.644;23.264;2023-05-19T02:41:41;60328.97;;;-140.67;100.00
2294;BME280;1155;42.644;23.264;2023-05-19T02:44:08;60331.00;;;-140.67;100.00
2294;BME280;1155;42.644;23.264;2023-05-19T02:46:35;60349.44;;;-140.67;100.00
2294;BME280;1155;42.644;23.264;2023-05-19T02:49:02;60341.25;;;-140.67;100.00
2294;BME280;1155;42.644;23.264;2023-05-19T02:51:29;60333.06;;;-140.67;100.00
2294;BME280;1155;42.644;23.264;2023-05-19T02:53:57;60339.19;;;-140.67;100.00
2294;BME280;1155;42.644;23.264;2023-05-19T02:56:24;60326.91;;;-140.67;100.00
2294;BME280;1155;42.644;23.264;2023-05-19T02:58:50;60326.91;;;-140.67;100.00
2294;BME280;1155;42.644;23.264;2023-05-19T03:01:17;60335.09;;;-140.67;100.00
2294;BME280;1155;42.644;23.264;2023-05-19T03:03:45;60318.72;;;-140.67;100.00
2294;BME280;1155;42.644;23.264;2023-05-19T03:06:12;60333.06;;;-140.67;100.00
2294;BME280;1155;42.644;23.264;2023-05-19T03:08:39;60343.28;;;-140.67;100.00
2294;BME280;1155;42.644;23.264;2023-05-19T03:11:08;60335.09;;;-140.67;100.00
2294;BME280;1155;42.644;23.264;2023-05-19T03:13:35;60324.84;;;-140.67;100.00
2294;BME280;1155;42.644;23.264;2023-05-19T03:16:02;60343.28;;;-140.67;100.00
2294;BME280;1155;42.644;23.264;2023-05-19T03:18:28;60339.19;;;-140.67;100.00
2294;BME280;1155;42.644;23.264;2023-05-19T03:20:56;60328.97;;;-140.67;100.00
2294;BME280;1155;42.644;23.264;2023-05-19T03:23:22;60357.63;;;-140.67;100.00
2294;BME280;1155;42.644;23.264;2023-05-19T03:25:50;60343.28;;;-140.67;100.00
2294;BME280;1155;42.644;23.264;2023-05-19T03:28:19;60345.34;;;-140.67;100.00
2294;BME280;1155;42.644;23.264;2023-05-19T03:30:47;60335.09;;;-140.67;100.00
2294;BME280;1155;42.644;23.264;2023-05-19T03:33:15;60328.97;;;-140.67;100.00
2294;BME280;1155;42.644;23.264;2023-05-19T03:35:41;60347.38;;;-140.67;100.00
2294;BME280;1155;42.644;23.264;2023-05-19T03:38:08;60337.16;;;-140.67;100.00
2294;BME280;1155;42.644;23.264;2023-05-19T03:40:35;60351.47;;;-140.67;100.00
2294;BME280;1155;42.644;23.264;2023-05-19T03:43:02;60312.56;;;-140.67;100.00
2294;BME280;1155;42.644;23.264;2023-05-19T03:45:30;60343.28;;;-140.67;100.00
2294;BME280;1155;42.644;23.264;2023-05-19T03:47:57;60326.91;;;-140.67;100.00
2294;BME280;1155;42.644;23.264;2023-05-19T03:50:24;60339.19;;;-140.67;100.00
2294;BME280;1155;42.644;23.264;2023-05-19T03:52:51;60341.25;;;-140.67;100.00
2294;BME280;1155;42.644;23.264;2023-05-19T03:55:18;60355.56;;;-140.67;100.00
2294;BME280;1155;42.644;23.264;2023-05-19T03:57:45;60331.00;;;-140.67;100.00
2294;BME280;1155;42.644;23.264;2023-05-19T04:00:13;60355.56;;;-140.67;100.00
2294;BME280;1155;42.644;23.264;2023-05-19T04:02:42;60363.78;;;-140.67;100.00
2294;BME280;1155;42.644;23.264;2023-05-19T04:05:09;60335.09;;;-140.67;100.00
2294;BME280;1155;42.644;23.264;2023-05-19T04:07:36;60326.91;;;-140.67;100.00
2294;BME280;1155;42.644;23.264;2023-05-19T04:10:04;60335.09;;;-140.67;100.00
2294;BME280;1155;42.644;23.264;2023-05-19T04:12:31;60310.53;;;-140.67;100.00
2294;BME280;1155;42.644;23.264;2023-05-19T04:14:58;60314.63;;;-140.67;100.00
2294;BME280;1155;42.644;23.264;2023-05-19T04:17:25;60351.47;;;-140.67;100.00
2294;BME280;1155;42.644;23.264;2023-05-19T04:19:54;60322.81;;;-140.67;100.00
2294;BME280;1155;42.644;23.264;2023-05-19T04:22:21;60367.88;;;-140.67;100.00
2294;BME280;1155;42.644;23.264;2023-05-19T04:24:48;60359.66;;;-140.67;100.00
2294;BME280;1155;42.644;23.264;2023-05-19T04:27:14;60331.00;;;-140.67;100.00
2294;BME280;1155;42.644;23.264;2023-05-19T04:29:42;60322.81;;;-140.67;100.00
2294;BME280;1155;42.644;23.264;2023-05-19T04:32:10;60333.06;;;-140.67;100.00
2294;BME280;1155;42.644;23.264;2023-05-19T04:34:42;60357.63;;;-140.67;100.00
2294;BME280;1155;42.644;23.264;2023-05-19T04:37:12;60347.38;;;-140.67;100.00
2294;BME280;1155;42.644;23.264;2023-05-19T04:39:40;60339.19;;;-140.67;100.00
2294;BME280;1155;42.644;23.264;2023-05-19T04:42:09;60335.09;;;-140.67;100.00
2294;BME280;1155;42.644;23.264;2023-05-19T04:44:36;60306.44;;;-140.67;100.00
2294;BME280;1155;42.644;23.264;2023-05-19T04:47:05;60343.28;;;-140.67;100.00
2294;BME280;1155;42.644;23.264;2023-05-19T04:49:33;60351.47;;;-140.67;100.00
2294;BME280;1155;42.644;23.264;2023-05-19T04:52:04;60326.91;;;-140.67;100.00
2294;BME280;1155;42.644;23.264;2023-05-19T04:54:33;60361.72;;;-140.67;100.00
2294;BME280;1155;42.644;23.264;2023-05-19T04:57:00;60316.66;;;-140.67;100.00
2294;BME280;1155;42.644;23.264;2023-05-19T04:59:27;60343.28;;;-140.67;100.00
2294;BME280;1155;42.644;23.264;2023-05-19T05:01:54;60331.00;;;-140.67;100.00
2294;BME280;1155;42.644;23.264;2023-05-19T05:04:22;60331.00;;;-140.67;100.00
2294;BME280;1155;42.644;23.264;2023-05-19T05:06:49;60343.28;;;-140.67;100.00
2294;BME280;1155;42.644;23.264;2023-05-19T05:09:16;60343.28;;;-140.67;100.00
2294;BME280;1155;42.644;23.264;2023-05-19T05:11:46;60351.47;;;-140.67;100.00
2294;BME280;1155;42.644;23.264;2023-05-19T05:14:13;60347.38;;;-140.67;100.00
2294;BME280;1155;42.644;23.264;2023-05-19T05:16:41;60359.66;;;-140.67;100.00
2294;BME280;1155;42.644;23.264;2023-05-19T05:19:08;60331.00;;;-140.67;100.00
2294;BME280;1155;42.644;23.264;2023-05-19T05:21:36;60345.34;;;-140.67;100.00
2294;BME280;1155;42.644;23.264;2023-05-19T05:24:03;60347.38;;;-140.67;100.00
2294;BME280;1155;42.644;23.264;2023-05-19T05:26:32;60339.19;;;-140.67;100.00
2294;BME280;1155;42.644;23.264;2023-05-19T05:29:01;60343.28;;;-140.67;100.00
2294;BME280;1155;42.644;23.264;2023-05-19T05:31:31;60353.53;;;-140.67;100.00
2294;BME280;1155;42.644;23.264;2023-05-19T05:33:58;60361.72;;;-140.67;100.00
2294;BME280;1155;42.644;23.264;2023-05-19T05:36:25;60359.66;;;-140.67;100.00
2294;BME280;1155;42.644;23.264;2023-05-19T05:38:52;60347.38;;;-140.67;100.00
2294;BME280;1155;42.644;23.264;2023-05-19T05:41:19;60355.56;;;-140.67;100.00
2294;BME280;1155;42.644;23.264;2023-05-19T05:43:46;60363.78;;;-140.67;100.00
2294;BME280;1155;42.644;23.264;2023-05-19T05:46:15;60380.16;;;-140.67;100.00
2294;BME280;1155;42.644;23.264;2023-05-19T05:48:43;60339.19;;;-140.67;100.00
2294;BME280;1155;42.644;23.264;2023-05-19T05:51:10;60359.66;;;-140.67;100.00
2294;BME280;1155;42.644;23.264;2023-05-19T05:53:40;60371.97;;;-140.67;100.00
2294;BME280;1155;42.644;23.264;2023-05-19T05:56:09;60337.16;;;-140.67;100.00
2294;BME280;1155;42.644;23.264;2023-05-19T05:58:36;60345.34;;;-140.67;100.00
2294;BME280;1155;42.644;23.264;2023-05-19T06:01:05;60361.72;;;-140.67;100.00
2294;BME280;1155;42.644;23.264;2023-05-19T06:03:38;60355.56;;;-140.67;98.97
2294;BME280;1155;42.644;23.264;2023-05-19T06:06:06;60376.06;;;-140.67;100.00
2294;BME280;1155;42.644;23.264;2023-05-19T06:08:33;60351.47;;;-140.67;99.63
2294;BME280;1155;42.644;23.264;2023-05-19T06:10:59;60376.06;;;-140.67;100.00
2294;BME280;1155;42.644;23.264;2023-05-19T06:13:32;60351.47;;;-140.67;100.00
2294;BME280;1155;42.644;23.264;2023-05-19T06:15:59;60357.63;;;-140.67;100.00
2294;BME280;1155;42.644;23.264;2023-05-19T06:18:26;60357.63;;;-140.67;100.00
2294;BME280;1155;42.644;23.264;2023-05-19T06:20:54;60343.28;;;-140.67;100.00
2294;BME280;1155;42.644;23.264;2023-05-19T06:23:21;60378.09;;;-140.67;100.00
2294;BME280;1155;42.644;23.264;2023-05-19T06:25:48;60324.84;;;-140.67;100.00
2294;BME280;1155;42.644;23.264;2023-05-19T06:28:15;60359.66;;;-140.67;100.00
2294;BME280;1155;42.644;23.264;2023-05-19T06:30:41;60351.47;;;-140.67;100.00
2294;BME280;1155;42.644;23.264;2023-05-19T06:33:08;60355.56;;;-140.67;100.00
2294;BME280;1155;42.644;23.264;2023-05-19T06:35:35;60378.09;;;-140.67;100.00
2294;BME280;1155;42.644;23.264;2023-05-19T06:38:03;60359.66;;;-140.67;96.40
2294;BME280;1155;42.644;23.264;2023-05-19T06:40:30;60339.19;;;-140.67;100.00
2294;BME280;1155;42.644;23.264;2023-05-19T06:42:57;60343.28;;;-140.67;96.92
2294;BME280;1155;42.644;23.264;2023-05-19T06:45:23;60380.16;;;-140.67;93.95
2294;BME280;1155;42.644;23.264;2023-05-19T06:47:50;60390.38;;;-140.67;87.26
2294;BME280;1155;42.644;23.264;2023-05-19T06:50:18;60347.38;;;-140.67;99.86
2294;BME280;1155;42.644;23.264;2023-05-19T06:52:45;60357.63;;;-140.67;99.24
2294;BME280;1155;42.644;23.264;2023-05-19T06:55:16;60380.16;;;-140.67;94.62
2294;BME280;1155;42.644;23.264;2023-05-19T06:57:42;60351.47;;;-140.67;72.29
2294;BME280;1155;42.644;23.264;2023-05-19T07:00:10;60326.91;;;-140.67;81.56
2294;BME280;1155;42.644;23.264;2023-05-19T07:02:38;60400.63;;;-140.67;88.04
2294;BME280;1155;42.644;23.264;2023-05-19T07:05:05;60339.19;;;-140.67;78.57
2294;BME280;1155;42.644;23.264;2023-05-19T07:07:32;60371.97;;;-140.67;94.47
2294;BME280;1155;42.644;23.264;2023-05-19T07:09:59;60357.63;;;-140.67;76.19
2294;BME280;1155;42.644;23.264;2023-05-19T07:12:27;60371.97;;;-140.67;69.93
2294;BME280;1155;42.644;23.264;2023-05-19T07:14:54;60367.88;;;-140.67;60.35
2294;BME280;1155;42.644;23.264;2023-05-19T07:17:21;60376.06;;;-140.67;64.23
2294;BME280;1155;42.644;23.264;2023-05-19T07:19:48;60388.34;;;-140.67;54.94
2294;BME280;1155;42.644;23.264;2023-05-19T07:22:15;60392.44;;;-140.67;60.39
2294;BME280;1155;42.644;23.264;2023-05-19T07:24:42;60388.34;;;-140.67;50.90
2294;BME280;1155;42.644;23.264;2023-05-19T07:27:09;60390.38;;;-140.67;56.11
2294;BME280;1155;42.644;23.264;2023-05-19T07:29:37;60380.16;;;-140.67;60.20
2294;BME280;1155;42.644;23.264;2023-05-19T07:32:05;60384.25;;;-140.67;53.18
2294;BME280;1155;42.644;23.264;2023-05-19T07:34:32;60398.59;;;-140.67;53.65
2294;BME280;1155;42.644;23.264;2023-05-19T07:36:59;60380.16;;;-140.67;55.79
2294;BME280;1155;42.644;23.264;2023-05-19T07:39:26;60408.81;;;-140.67;51.82
2294;BME280;1155;42.644;23.264;2023-05-19T07:41:54;60371.97;;;-140.67;49.22
2294;BME280;1155;42.644;23.264;2023-05-19T07:44:20;60398.59;;;-140.67;47.49
2294;BME280;1155;42.644;23.264;2023-05-19T07:46:49;60378.09;;;-140.67;51.47
2294;BME280;1155;42.644;23.264;2023-05-19T07:49:16;60380.16;;;-140.67;54.27
2294;BME280;1155;42.644;23.264;2023-05-19T07:51:42;60382.19;;;-140.67;52.41
2294;BME280;1155;42.644;23.264;2023-05-19T07:54:09;60367.88;;;-140.67;52.29
2294;BME280;1155;42.644;23.264;2023-05-19T07:56:36;60386.28;;;-140.67;60.30
2294;BME280;1155;42.644;23.264;2023-05-19T07:59:03;60388.34;;;-140.67;58.17
2294;BME280;1155;42.644;23.264;2023-05-19T08:01:32;60378.09;;;-140.67;52.38
2294;BME280;1155;42.644;23.264;2023-05-19T08:04:00;60396.53;;;-140.67;48.75
2294;BME280;1155;42.644;23.264;2023-05-19T08:06:27;60408.81;;;-140.67;48.64
2294;BME280;1155;42.644;23.264;2023-05-19T08:08:54;60417.00;;;-140.67;54.63
2294;BME280;1155;42.644;23.264;2023-05-19T08:11:21;60369.91;;;-140.67;51.24
2294;BME280;1155;42.644;23.264;2023-05-19T08:13:48;60394.50;;;-140.67;54.14
2294;BME280;1155;42.644;23.264;2023-05-19T08:16:15;60396.53;;;-140.67;54.44
2294;BME280;1155;42.644;23.264;2023-05-19T08:18:42;60402.69;;;-140.67;61.65
2294;BME280;1155;42.644;23.264;2023-05-19T08:21:10;60388.34;;;-140.67;60.69
2294;BME280;1155;42.644;23.264;2023-05-19T08:23:37;60425.19;;;-140.67;51.32
2294;BME280;1155;42.644;23.264;2023-05-19T08:26:04;60396.53;;;-140.67;44.75
2294;BME280;1155;42.644;23.264;2023-05-19T08:28:30;60392.44;;;-140.67;48.96
2294;BME280;1155;42.644;23.264;2023-05-19T08:30:57;60421.09;;;-140.67;58.62
2294;BME280;1155;42.644;23.264;2023-05-19T08:33:24;60441.59;;;-140.67;47.60
2294;BME280;1155;42.644;23.264;2023-05-19T08:35:51;60382.19;;;-140.67;47.11
2294;BME280;1155;42.644;23.264;2023-05-19T08:38:21;60406.78;;;-140.67;45.38
2294;BME280;1155;42.644;23.264;2023-05-19T08:40:48;60417.00;;;-140.67;45.83
2294;BME280;1155;42.644;23.264;2023-05-19T08:43:14;60408.81;;;-140.67;44.26
2294;BME280;1155;42.644;23.264;2023-05-19T08:45:42;60412.91;;;-140.67;44.51
2294;BME280;1155;42.644;23.264;2023-05-19T08:48:12;60408.81;;;-140.67;47.35
2294;BME280;1155;42.644;23.264;2023-05-19T08:50:40;60414.97;;;-140.67;47.39
2294;BME280;1155;42.644;23.264;2023-05-19T08:53:11;60412.91;;;-140.67;47.69
2294;BME280;1155;42.644;23.264;2023-05-19T08:55:44;60400.63;;;-140.67;48.64
2294;BME280;1155;42.644;23.264;2023-05-19T08:58:13;60419.06;;;-140.67;46.48
2294;BME280;1155;42.644;23.264;2023-05-19T09:00:44;60400.63;;;-140.67;54.04
2294;BME280;1155;42.644;23.264;2023-05-19T09:03:15;60441.59;;;-140.67;46.08
2294;BME280;1155;42.644;23.264;2023-05-19T09:05:45;60404.72;;;-140.67;45.33
2294;BME280;1155;42.644;23.264;2023-05-19T09:08:12;60429.31;;;-140.67;44.67
2294;BME280;1155;42.644;23.264;2023-05-19T09:10:40;60431.34;;;-140.67;42.02
2294;BME280;1155;42.644;23.264;2023-05-19T09:13:08;60437.50;;;-140.67;42.10
2294;BME280;1155;42.644;23.264;2023-05-19T09:15:37;60429.31;;;-140.67;43.07
2294;BME280;1155;42.644;23.264;2023-05-19T09:18:07;60435.44;;;-140.67;43.53
2294;BME280;1155;42.644;23.264;2023-05-19T09:20:36;60429.31;;;-140.67;43.27
2294;BME280;1155;42.644;23.264;2023-05-19T09:23:04;60412.91;;;-140.67;44.15
2294;BME280;1155;42.644;23.264;2023-05-19T09:25:32;60433.41;;;-140.67;44.32
2294;BME280;1155;42.644;23.264;2023-05-19T09:28:00;60451.81;;;-140.67;43.50
2294;BME280;1155;42.644;23.264;2023-05-19T09:30:27;60453.88;;;-140.67;39.73
2294;BME280;1155;42.644;23.264;2023-05-19T09:32:54;60435.44;;;-140.67;41.60
2294;BME280;1155;42.644;23.264;2023-05-19T09:35:21;60484.59;;;-140.67;39.35
2294;BME280;1155;42.644;23.264;2023-05-19T09:37:48;60457.97;;;-140.67;38.56
2294;BME280;1155;42.644;23.264;2023-05-19T09:40:15;60462.06;;;-140.67;38.56
2294;BME280;1155;42.644;23.264;2023-05-19T09:42:42;60441.59;;;-140.67;36.87
2294;BME280;1155;42.644;23.264;2023-05-19T09:45:10;60437.50;;;-140.67;38.88
2294;BME280;1155;42.644;23.264;2023-05-19T09:47:38;60478.44;;;-140.67;42.09
2294;BME280;1155;42.644;23.264;2023-05-19T09:50:06;60449.78;;;-140.67;37.71
2294;BME280;1155;42.644;23.264;2023-05-19T09:52:37;60457.97;;;-140.67;38.86
2294;BME280;1155;42.644;23.264;2023-05-19T09:55:04;60511.22;;;-140.67;37.35
2294;BME280;1155;42.644;23.264;2023-05-19T09:57:35;60480.50;;;-140.67;33.23
2294;BME280;1155;42.644;23.264;2023-05-19T10:00:06;60480.50;;;-140.67;34.65
2294;BME280;1155;42.644;23.264;2023-05-19T10:02:41;60472.31;;;-140.67;34.70
2294;BME280;1155;42.644;23.264;2023-05-19T10:05:10;60476.41;;;-140.67;33.00
2294;BME280;1155;42.644;23.264;2023-05-19T10:07:41;60457.97;;;-140.67;36.50
2294;BME280;1155;42.644;23.264;2023-05-19T10:10:11;60494.84;;;-140.67;34.17
2294;BME280;1155;42.644;23.264;2023-05-19T10:12:38;60476.41;;;-140.67;34.61
2294;BME280;1155;42.644;23.264;2023-05-19T10:15:08;60515.31;;;-140.67;32.33
2294;BME280;1155;42.644;23.264;2023-05-19T10:17:37;60500.97;;;-140.67;32.55
2294;BME280;1155;42.644;23.264;2023-05-19T10:20:07;60455.91;;;-140.67;32.48
2294;BME280;1155;42.644;23.264;2023-05-19T10:22:35;60509.16;;;-140.67;31.36
2294;BME280;1155;42.644;23.264;2023-05-19T10:25:02;60523.50;;;-140.67;33.79
2294;BME280;1155;42.644;23.264;2023-05-19T10:27:30;60523.50;;;-140.67;32.99
2294;BME280;1155;42.644;23.264;2023-05-19T10:30:01;60531.69;;;-140.67;30.88
2294;BME280;1155;42.644;23.264;2023-05-19T10:32:31;60531.69;;;-140.67;29.97
2294;BME280;1155;42.644;23.264;2023-05-19T10:38:06;60531.69;;;-140.67;30.83
2294;BME280;1155;42.644;23.264;2023-05-19T10:40:40;60529.66;;;-140.67;29.23
2294;BME280;1155;42.644;23.264;2023-05-19T10:43:15;60554.22;;;-140.67;29.60
2294;BME280;1155;42.644;23.264;2023-05-19T10:45:47;60552.19;;;-140.67;29.20
2294;BME280;1155;42.644;23.264;2023-05-19T10:48:14;60564.47;;;-140.67;29.85
2294;BME280;1155;42.644;23.264;2023-05-19T10:50:43;60556.28;;;-140.67;29.00
2294;BME280;1155;42.644;23.264;2023-05-19T10:53:15;60511.22;;;-140.67;28.45
2294;BME280;1155;42.644;23.264;2023-05-19T10:55:44;60531.69;;;-140.67;29.16
2294;BME280;1155;42.644;23.264;2023-05-19T10:58:11;60531.69;;;-140.67;29.40
2294;BME280;1155;42.644;23.264;2023-05-19T11:00:39;60482.53;;;-140.67;30.43
2294;BME280;1155;42.644;23.264;2023-05-19T11:03:12;60460.03;;;-140.67;29.65
2294;BME280;1155;42.644;23.264;2023-05-19T11:05:39;60445.69;;;-140.67;29.27
2294;BME280;1155;42.644;23.264;2023-05-19T11:08:10;60462.06;;;-140.67;31.50
2294;BME280;1155;42.644;23.264;2023-05-19T11:10:42;60468.22;;;-140.67;30.88
2294;BME280;1155;42.644;23.264;2023-05-19T11:13:17;60492.78;;;-140.67;31.90
2294;BME280;1155;42.644;23.264;2023-05-19T11:15:45;60523.50;;;-140.67;30.18
2294;BME280;1155;42.644;23.264;2023-05-19T11:18:13;60543.97;;;-140.67;28.52
2294;BME280;1155;42.644;23.264;2023-05-19T11:20:40;60529.66;;;-140.67;28.40
2294;BME280;1155;42.644;23.264;2023-05-19T11:23:13;60589.03;;;-140.67;27.48
2294;BME280;1155;42.644;23.264;2023-05-19T11:25:44;60623.84;;;-140.67;26.46
2294;BME280;1155;42.644;23.264;2023-05-19T11:28:14;60605.41;;;-140.67;25.67
2294;BME280;1155;42.644;23.264;2023-05-19T11:30:43;60576.75;;;-140.67;25.20
2294;BME280;1155;42.644;23.264;2023-05-19T11:33:10;60511.22;;;-140.67;26.90
2294;BME280;1155;42.644;23.264;2023-05-19T11:35:38;60486.63;;;-140.67;29.18
2294;BME280;1155;42.644;23.264;2023-05-19T11:38:05;60513.25;;;-140.67;29.99
2294;BME280;1155;42.644;23.264;2023-05-19T11:40:33;60523.50;;;-140.67;28.69
2294;BME280;1155;42.644;23.264;2023-05-19T11:43:01;60498.94;;;-140.67;27.62
2294;BME280;1155;42.644;23.264;2023-05-19T11:45:30;60535.78;;;-140.67;26.74
2294;BME280;1155;42.644;23.264;2023-05-19T11:47:58;60503.03;;;-140.67;27.95
2294;BME280;1155;42.644;23.264;2023-05-19T11:50:25;60443.63;;;-140.67;29.19
2294;BME280;1155;42.644;23.264;2023-05-19T11:52:53;60429.31;;;-140.67;28.40
2294;BME280;1155;42.644;23.264;2023-05-19T11:55:21;60414.97;;;-140.67;32.19
2294;BME280;1155;42.644;23.264;2023-05-19T11:57:56;60404.72;;;-140.67;35.43
2294;BME280;1155;42.644;23.264;2023-05-19T12:00:25;60365.81;;;-140.67;47.40
2294;BME280;1155;42.644;23.264;2023-05-19T12:02:52;60384.25;;;-140.67;61.20
2294;BME280;1155;42.644;23.264;2023-05-19T12:05:20;60343.28;;;-140.67;80.19
2294;BME280;1155;42.644;23.264;2023-05-19T12:07:47;60363.78;;;-140.67;85.03
2294;BME280;1155;42.644;23.264;2023-05-19T12:10:16;60367.88;;;-140.67;83.76
2294;BME280;1155;42.644;23.264;2023-05-19T12:12:44;60343.28;;;-140.67;92.74
2294;BME280;1155;42.644;23.264;2023-05-19T12:15:11;60347.38;;;-140.67;74.84
2294;BME280;1155;42.644;23.264;2023-05-19T12:17:39;60355.56;;;-140.67;99.19
2294;BME280;1155;42.644;23.264;2023-05-19T12:20:07;60328.97;;;-140.67;95.61
2294;BME280;1155;42.644;23.264;2023-05-19T12:22:35;60345.34;;;-140.67;100.00
2294;BME280;1155;42.644;23.264;2023-05-19T12:25:02;60335.09;;;-140.67;100.00
2294;BME280;1155;42.644;23.264;2023-05-19T12:27:34;60335.09;;;-140.67;100.00
2294;BME280;1155;42.644;23.264;2023-05-19T12:30:02;60324.84;;;-140.67;100.00
2294;BME280;1155;42.644;23.264;2023-05-19T12:32:32;60318.72;;;-140.67;100.00
2294;BME280;1155;42.644;23.264;2023-05-19T12:35:01;60314.63;;;-140.67;100.00
2294;BME280;1155;42.644;23.264;2023-05-19T12:37:28;60312.56;;;-140.67;100.00
2294;BME280;1155;42.644;23.264;2023-05-19T12:39:56;60318.72;;;-140.67;100.00
2294;BME280;1155;42.644;23.264;2023-05-19T12:42:26;60335.09;;;-140.67;100.00
2294;BME280;1155;42.644;23.264;2023-05-19T12:44:56;60322.81;;;-140.67;100.00
2294;BME280;1155;42.644;23.264;2023-05-19T12:47:29;60339.19;;;-140.67;100.00
2294;BME280;1155;42.644;23.264;2023-05-19T12:50:02;60349.44;;;-140.67;100.00
2294;BME280;1155;42.644;23.264;2023-05-19T12:52:31;60326.91;;;-140.67;100.00
2294;BME280;1155;42.644;23.264;2023-05-19T12:55:01;60339.19;;;-140.67;100.00
2294;BME280;1155;42.644;23.264;2023-05-19T12:57:30;60343.28;;;-140.67;100.00
2294;BME280;1155;42.644;23.264;2023-05-19T13:00:03;60341.25;;;-140.67;100.00